Time;durP1;ratioP1;P1;durP2;ratioP2;P2;SDS_P1;SDS_P2;PMS_P1;PMS_P2;Temp;Humidity;BMP_temperature;BMP_pressure;BME280_temperature;BME280_humidity;BME280_pressure;Samples;Min_cycle;Max_cycle;Signal;HPM_P1;HPM_P2
2023/06/17 00:00:09;;;;;;;7.95;4.60;;;20.20;99.90;;;;;;5073787;28;20645;-50
2023/06/17 00:02:35;;;;;;;6.05;3.95;;;20.10;99.90;;;;;;5073865;28;20174;-50
2023/06/17 00:05:02;;;;;;;5.20;4.20;;;20.00;99.90;;;;;;5074215;28;20207;-50
2023/06/17 00:07:28;;;;;;;5.70;4.05;;;20.00;99.90;;;;;;5073965;28;20202;-50
2023/06/17 00:09:53;;;;;;;9.07;4.78;;;19.80;99.90;;;;;;5073793;28;20188;-50
2023/06/17 00:12:19;;;;;;;5.88;4.53;;;19.90;99.90;;;;;;5073324;28;20170;-49
2023/06/17 00:14:46;;;;;;;8.82;4.68;;;19.90;99.90;;;;;;5073692;28;20176;-50
2023/06/17 00:17:12;;;;;;;9.55;5.10;;;19.90;99.90;;;;;;5073799;28;20170;-50
2023/06/17 00:19:38;;;;;;;5.38;4.18;;;19.90;99.90;;;;;;5073531;28;20215;-50
2023/06/17 00:22:05;;;;;;;7.38;4.07;;;19.90;99.90;;;;;;5073481;28;20633;-50
2023/06/17 00:24:30;;;;;;;7.85;4.57;;;19.90;99.90;;;;;;5073669;28;20289;-50
2023/06/17 00:26:56;;;;;;;7.28;4.22;;;19.80;99.90;;;;;;5073212;28;20309;-50
2023/06/17 00:29:21;;;;;;;7.25;4.82;;;19.80;99.90;;;;;;5073435;28;20713;-50
2023/06/17 00:31:47;;;;;;;12.05;4.35;;;19.80;99.90;;;;;;5073428;28;20856;-50
2023/06/17 00:34:12;;;;;;;6.97;4.60;;;19.80;99.90;;;;;;5073294;28;20259;-50
2023/06/17 00:36:38;;;;;;;8.98;4.05;;;19.80;99.90;;;;;;5073277;28;20169;-50
2023/06/17 00:39:03;;;;;;;5.53;4.40;;;19.60;99.90;;;;;;5073282;28;20166;-50
2023/06/17 00:41:29;;;;;;;8.75;4.30;;;19.40;99.90;;;;;;5073531;28;20170;-50
2023/06/17 00:43:55;;;;;;;7.38;4.18;;;19.50;99.90;;;;;;5073157;28;20162;-50
2023/06/17 00:46:34;;;;;;;8.77;4.20;;;19.40;99.90;;;;;;5072958;28;20689;-50
2023/06/17 00:49:00;;;;;;;9.38;4.18;;;19.40;99.90;;;;;;5073397;28;20649;-50
2023/06/17 00:51:25;;;;;;;8.63;4.57;;;19.50;99.90;;;;;;5072951;28;20649;-50
2023/06/17 00:53:51;;;;;;;5.45;3.95;;;19.40;99.90;;;;;;5072541;28;20166;-50
2023/06/17 00:56:17;;;;;;;6.35;4.18;;;19.20;99.90;;;;;;5072847;28;20166;-50
2023/06/17 00:58:44;;;;;;;15.18;4.80;;;19.10;99.90;;;;;;5072709;28;20171;-50
2023/06/17 01:01:10;;;;;;;5.10;4.30;;;19.00;99.90;;;;;;5072552;28;20154;-50
2023/06/17 01:03:36;;;;;;;6.88;4.65;;;19.00;99.90;;;;;;5072805;28;20172;-50
2023/06/17 01:06:11;;;;;;;4.95;3.92;;;18.90;99.90;;;;;;5072618;28;20296;-50
2023/06/17 01:09:01;;;;;;;6.25;4.55;;;19.00;99.90;;;;;;5072467;28;20229;-50
2023/06/17 01:11:27;;;;;;;6.47;3.95;;;18.90;99.90;;;;;;5072629;28;20215;-50
2023/06/17 01:13:55;;;;;;;6.30;4.28;;;18.90;99.90;;;;;;5072534;28;20170;-50
2023/06/17 01:16:22;;;;;;;7.18;4.25;;;19.00;99.90;;;;;;5072447;28;20160;-50
2023/06/17 01:18:49;;;;;;;6.97;4.57;;;18.90;99.90;;;;;;5072440;28;20159;-50
2023/06/17 01:21:17;;;;;;;4.15;3.75;;;19.00;99.90;;;;;;5072297;28;20657;-50
2023/06/17 01:23:49;;;;;;;8.68;4.32;;;19.00;99.90;;;;;;5072354;28;20664;-50
2023/06/17 01:26:16;;;;;;;7.03;4.20;;;19.00;99.90;;;;;;5072175;28;20243;-50
2023/06/17 01:28:44;;;;;;;8.60;4.30;;;19.00;99.90;;;;;;5072260;28;20176;-50
2023/06/17 01:31:12;;;;;;;7.18;4.65;;;18.80;99.90;;;;;;5072472;28;20178;-50
2023/06/17 01:33:41;;;;;;;6.18;4.75;;;18.70;99.90;;;;;;5071647;28;20633;-50
2023/06/17 01:36:19;;;;;;;5.65;4.93;;;18.50;99.90;;;;;;5072156;28;20197;-50
2023/06/17 01:38:55;;;;;;;7.07;4.60;;;18.40;99.90;;;;;;5072079;28;20184;-50
2023/06/17 01:41:29;;;;;;;8.82;4.68;;;18.30;99.90;;;;;;5071608;28;20181;-50
2023/06/17 01:43:57;;;;;;;6.43;4.82;;;18.20;99.90;;;;;;5071979;28;20186;-50
2023/06/17 01:46:24;;;;;;;7.13;4.80;;;18.30;99.90;;;;;;5071774;28;20700;-50
2023/06/17 01:48:53;;;;;;;6.40;4.70;;;18.20;99.90;;;;;;5072048;28;20178;-50
2023/06/17 01:51:19;;;;;;;6.25;4.70;;;18.20;99.90;;;;;;5071778;28;20169;-50
2023/06/17 01:53:45;;;;;;;17.42;4.80;;;18.10;99.90;;;;;;5054091;28;20176;-50
2023/06/17 01:56:11;;;;;;;5.35;3.85;;;18.10;99.90;;;;;;5071876;28;20166;-50
2023/06/17 01:58:37;;;;;;;7.65;4.30;;;18.20;99.90;;;;;;5071706;28;20243;-50
2023/06/17 02:01:03;;;;;;;7.30;4.45;;;18.20;99.90;;;;;;5071794;28;20173;-50
2023/06/17 02:03:29;;;;;;;6.78;4.72;;;18.30;99.90;;;;;;5072069;28;20162;-50
2023/06/17 02:05:54;;;;;;;10.90;4.75;;;18.20;99.90;;;;;;5070445;28;20684;-50
2023/06/17 02:08:22;;;;;;;5.85;4.60;;;18.20;99.90;;;;;;5071460;28;20247;-50
2023/06/17 02:10:47;;;;;;;4.93;3.75;;;18.20;99.90;;;;;;5071589;28;20200;-50
2023/06/17 02:13:13;;;;;;;7.30;4.32;;;18.20;99.90;;;;;;5071656;28;20174;-50
2023/06/17 02:15:42;;;;;;;8.45;4.68;;;18.10;99.90;;;;;;5071584;28;20166;-50
2023/06/17 02:18:12;;;;;;;8.20;4.85;;;18.20;99.90;;;;;;5071753;28;20174;-50
2023/06/17 02:20:38;;;;;;;7.63;4.70;;;18.20;99.90;;;;;;5071748;28;20177;-50
2023/06/17 02:23:04;;;;;;;7.45;4.60;;;18.20;99.90;;;;;;5071503;28;20668;-50
2023/06/17 02:25:30;;;;;;;11.38;4.18;;;18.20;99.90;;;;;;5071761;28;20246;-50
2023/06/17 02:27:55;;;;;;;7.38;4.30;;;18.20;99.90;;;;;;5071418;28;20163;-50
2023/06/17 02:30:21;;;;;;;6.57;4.85;;;18.20;99.90;;;;;;5053526;28;20255;-50
2023/06/17 02:32:46;;;;;;;6.90;4.35;;;18.20;99.90;;;;;;5071308;28;20165;-50
2023/06/17 02:35:12;;;;;;;8.75;4.22;;;18.10;99.90;;;;;;5071348;28;20244;-50
2023/06/17 02:37:38;;;;;;;6.60;4.47;;;18.00;99.90;;;;;;5071393;28;20570;-50
2023/06/17 02:40:08;;;;;;;7.03;5.00;;;17.70;99.90;;;;;;5071242;28;20514;-50
2023/06/17 02:42:38;;;;;;;10.68;5.10;;;17.80;99.90;;;;;;5070824;28;20163;-50
2023/06/17 02:45:06;;;;;;;13.43;4.35;;;17.90;99.90;;;;;;5071607;28;20202;-50
2023/06/17 02:47:32;;;;;;;8.20;4.95;;;18.00;99.90;;;;;;5071342;28;20174;-50
2023/06/17 02:49:58;;;;;;;5.82;4.28;;;18.00;99.90;;;;;;5071484;28;20273;-50
2023/06/17 02:52:23;;;;;;;6.20;4.53;;;17.90;99.90;;;;;;5071189;28;20212;-50
2023/06/17 02:54:50;;;;;;;10.18;5.03;;;18.00;99.90;;;;;;5071402;28;20227;-50
2023/06/17 02:57:16;;;;;;;7.70;5.82;;;18.00;99.90;;;;;;5071407;28;20201;-50
2023/06/17 02:59:42;;;;;;;10.13;5.07;;;18.00;99.90;;;;;;5071106;28;20527;-50
2023/06/17 03:02:08;;;;;;;7.30;4.90;;;17.90;99.90;;;;;;5071392;28;20212;-50
2023/06/17 03:04:37;;;;;;;8.70;5.13;;;17.90;99.90;;;;;;5070898;28;20193;-50
2023/06/17 03:07:06;;;;;;;10.93;4.70;;;17.90;99.90;;;;;;5070958;28;20170;-50
2023/06/17 03:09:32;;;;;;;7.63;4.80;;;17.80;99.90;;;;;;5071602;28;20174;-50
2023/06/17 03:12:04;;;;;;;8.90;4.25;;;17.80;99.90;;;;;;5071384;28;20222;-50
2023/06/17 03:14:30;;;;;;;10.70;4.75;;;17.80;99.90;;;;;;5071193;28;20649;-50
2023/06/17 03:16:59;;;;;;;14.75;4.50;;;17.80;99.90;;;;;;5071887;28;20200;-50
2023/06/17 03:19:25;;;;;;;8.95;4.40;;;17.80;99.90;;;;;;5074711;28;20215;-50
2023/06/17 03:21:52;;;;;;;8.10;4.22;;;17.80;99.90;;;;;;5074575;28;20858;-50
2023/06/17 03:24:18;;;;;;;9.32;5.28;;;17.80;99.90;;;;;;5074614;28;20173;-50
2023/06/17 03:26:45;;;;;;;11.15;4.93;;;17.80;99.90;;;;;;5074591;28;20656;-50
2023/06/17 03:29:10;;;;;;;9.90;4.15;;;17.80;99.90;;;;;;5074538;28;20625;-50
2023/06/17 03:31:36;;;;;;;12.73;5.10;;;17.70;99.90;;;;;;5074497;28;20181;-50
2023/06/17 03:34:02;;;;;;;8.40;4.50;;;17.70;99.90;;;;;;5074705;28;20178;-51
2023/06/17 03:36:30;;;;;;;7.18;4.38;;;17.70;99.90;;;;;;5074911;28;20200;-51
2023/06/17 03:38:57;;;;;;;8.10;4.18;;;17.70;99.90;;;;;;5074683;28;20158;-52
2023/06/17 03:41:26;;;;;;;7.93;4.85;;;17.70;99.90;;;;;;5074369;28;20192;-52
2023/06/17 03:43:52;;;;;;;9.98;4.72;;;17.70;99.90;;;;;;5074536;28;20196;-51
2023/06/17 03:46:18;;;;;;;9.30;4.57;;;17.50;99.90;;;;;;5074111;28;20213;-50
2023/06/17 03:48:44;;;;;;;8.95;5.30;;;17.60;99.90;;;;;;5074459;28;20174;-50
2023/06/17 03:51:10;;;;;;;8.63;4.60;;;17.60;99.90;;;;;;5074369;28;20621;-50
2023/06/17 03:53:36;;;;;;;8.80;4.93;;;;;;;;;;5074406;28;20174;-51
2023/06/17 03:56:02;;;;;;;12.02;5.43;;;;;;;;;;5074414;28;20170;-52
2023/06/17 03:58:28;;;;;;;5.93;4.80;;;17.30;99.90;;;;;;5074699;28;20178;-50
2023/06/17 04:00:53;;;;;;;12.43;5.30;;;17.30;99.90;;;;;;5073947;28;20579;-49
2023/06/17 04:03:19;;;;;;;10.88;5.03;;;17.50;99.90;;;;;;5073881;28;20179;-50
2023/06/17 04:05:45;;;;;;;9.85;4.85;;;17.80;99.90;;;;;;5074081;28;20217;-50
2023/06/17 04:08:11;;;;;;;12.18;6.72;;;17.60;99.90;;;;;;5073796;28;20705;-49
2023/06/17 04:10:36;;;;;;;11.98;6.25;;;17.70;99.90;;;;;;5073835;28;20178;-50
2023/06/17 04:13:02;;;;;;;9.98;5.68;;;17.80;99.90;;;;;;5073913;28;20170;-50
2023/06/17 04:15:28;;;;;;;11.90;5.75;;;;;;;;;;5074150;28;20264;-50
2023/06/17 04:17:54;;;;;;;8.60;4.57;;;17.90;99.90;;;;;;5073584;28;20177;-49
2023/06/17 04:20:19;;;;;;;9.60;4.55;;;17.80;99.90;;;;;;5073565;28;20173;-49
2023/06/17 04:22:45;;;;;;;6.28;4.82;;;17.90;99.90;;;;;;5073577;28;20201;-49
2023/06/17 04:25:13;;;;;;;7.95;5.00;;;17.90;99.90;;;;;;5073489;28;20240;-49
2023/06/17 04:27:39;;;;;;;9.75;5.30;;;17.90;99.90;;;;;;5073483;28;20240;-49
2023/06/17 04:30:08;;;;;;;11.20;5.05;;;17.90;99.90;;;;;;5072699;28;20265;-49
2023/06/17 04:32:38;;;;;;;17.95;5.53;;;17.90;99.90;;;;;;5073376;28;20158;-49
2023/06/17 04:35:05;;;;;;;9.57;5.13;;;18.20;99.90;;;;;;5073276;28;20170;-49
2023/06/17 04:37:32;;;;;;;10.50;5.38;;;18.50;99.90;;;;;;5073686;28;20170;-49
2023/06/17 04:39:58;;;;;;;5.10;4.57;;;15.40;99.90;;;;;;5073841;28;20197;-49
2023/06/17 04:42:24;;;;;;;7.20;4.90;;;18.70;99.90;;;;;;5073458;28;20170;-49
2023/06/17 04:44:51;;;;;;;6.63;4.82;;;18.80;99.90;;;;;;5073111;28;20243;-49
2023/06/17 04:47:16;;;;;;;12.55;5.35;;;18.90;99.90;;;;;;5073250;28;20595;-49
2023/06/17 04:49:44;;;;;;;9.90;5.75;;;19.00;99.90;;;;;;5073035;28;20196;-49
2023/06/17 04:52:12;;;;;;;7.13;4.60;;;18.80;99.90;;;;;;5073234;28;20257;-49
2023/06/17 04:54:38;;;;;;;8.73;5.10;;;18.70;99.90;;;;;;5072844;28;20637;-49
2023/06/17 04:57:04;;;;;;;9.13;5.00;;;18.80;99.90;;;;;;5072978;28;20177;-49
2023/06/17 04:59:30;;;;;;;10.60;5.30;;;19.00;99.90;;;;;;5073236;28;20177;-49
2023/06/17 05:01:56;;;;;;;7.40;4.93;;;19.00;99.90;;;;;;5055628;28;20173;-49
2023/06/17 05:04:22;;;;;;;15.25;6.28;;;18.90;99.90;;;;;;5072978;28;20173;-49
2023/06/17 05:06:48;;;;;;;9.13;5.53;;;18.90;99.90;;;;;;5072760;28;20637;-49
2023/06/17 05:09:14;;;;;;;6.90;5.45;;;18.90;99.90;;;;;;5072518;28;20750;-49
2023/06/17 05:11:40;;;;;;;8.63;5.55;;;19.30;99.90;;;;;;5072538;28;20174;-49
2023/06/17 05:14:06;;;;;;;8.95;5.15;;;19.20;99.90;;;;;;5072517;28;20707;-50
2023/06/17 05:16:32;;;;;;;8.15;5.13;;;19.50;99.90;;;;;;5072783;28;20170;-50
2023/06/17 05:18:58;;;;;;;8.32;5.22;;;19.50;99.90;;;;;;5072867;28;20180;-50
2023/06/17 05:21:24;;;;;;;11.23;5.45;;;19.70;99.90;;;;;;5072455;28;20645;-50
2023/06/17 05:23:50;;;;;;;6.22;5.22;;;19.70;99.90;;;;;;5072362;28;20239;-50
2023/06/17 05:26:16;;;;;;;13.98;5.82;;;19.80;99.90;;;;;;5072274;28;20696;-50
2023/06/17 05:28:41;;;;;;;9.25;5.95;;;19.70;99.90;;;;;;5072281;28;20675;-50
2023/06/17 05:31:08;;;;;;;9.13;5.90;;;19.80;99.90;;;;;;5072508;28;20252;-50
2023/06/17 05:33:34;;;;;;;8.25;5.65;;;19.70;99.90;;;;;;5072139;28;20166;-49
2023/06/17 05:36:00;;;;;;;8.85;5.47;;;19.60;99.90;;;;;;5072479;28;20165;-49
2023/06/17 05:38:26;;;;;;;9.65;6.28;;;19.90;99.90;;;;;;5072691;28;20184;-50
2023/06/17 05:40:52;;;;;;;11.98;6.13;;;20.00;99.90;;;;;;5071168;28;20168;-50
2023/06/17 05:43:18;;;;;;;7.35;6.10;;;20.20;99.90;;;;;;5072012;28;20522;-50
2023/06/17 05:45:43;;;;;;;11.60;6.22;;;20.40;99.90;;;;;;5071855;28;20198;-50
2023/06/17 05:48:09;;;;;;;8.52;5.65;;;20.30;99.90;;;;;;5054024;28;20595;-50
2023/06/17 05:50:35;;;;;;;9.95;6.03;;;20.50;99.90;;;;;;5072161;28;20281;-50
2023/06/17 05:53:00;;;;;;;10.25;6.35;;;20.70;99.90;;;;;;5072264;28;20166;-50
2023/06/17 05:55:26;;;;;;;10.15;6.70;;;20.80;99.90;;;;;;5072419;28;20191;-50
2023/06/17 05:57:52;;;;;;;12.55;6.57;;;20.90;99.90;;;;;;5072092;28;20174;-49
2023/06/17 06:00:18;;;;;;;13.43;6.43;;;21.00;99.90;;;;;;5071888;28;20711;-49
2023/06/17 06:02:44;;;;;;;10.30;6.40;;;21.10;99.90;;;;;;5054138;28;20565;-50
2023/06/17 06:05:10;;;;;;;8.43;6.40;;;21.10;99.90;;;;;;5071891;28;20206;-49
2023/06/17 06:07:37;;;;;;;10.80;7.32;;;21.10;99.90;;;;;;5071609;28;20217;-49
2023/06/17 06:10:05;;;;;;;9.70;7.05;;;21.20;99.90;;;;;;5071564;28;20188;-50
2023/06/17 06:12:31;;;;;;;10.85;7.10;;;21.10;99.90;;;;;;5071829;28;20196;-50
2023/06/17 06:14:57;;;;;;;14.77;6.72;;;21.30;99.90;;;;;;5072009;28;20188;-50
2023/06/17 06:17:23;;;;;;;9.57;5.90;;;21.00;99.90;;;;;;5071718;28;20177;-49
2023/06/17 06:19:50;;;;;;;6.55;5.85;;;20.90;99.90;;;;;;5071399;28;20689;-49
2023/06/17 06:22:15;;;;;;;7.72;6.13;;;20.90;99.90;;;;;;5071618;28;20182;-50
2023/06/17 06:24:41;;;;;;;8.57;6.00;;;21.20;99.90;;;;;;5071198;28;20265;-49
2023/06/17 06:27:06;;;;;;;11.77;6.55;;;21.40;99.90;;;;;;5071345;28;20184;-50
2023/06/17 06:29:32;;;;;;;8.27;6.03;;;21.70;99.90;;;;;;5071364;28;20200;-50
2023/06/17 06:31:57;;;;;;;10.15;6.00;;;21.70;99.90;;;;;;5071669;28;20687;-50
2023/06/17 06:34:23;;;;;;;9.65;6.07;;;21.80;99.90;;;;;;5071431;28;20162;-50
2023/06/17 06:36:48;;;;;;;9.63;7.30;;;21.90;99.90;;;;;;5071342;28;20169;-50
2023/06/17 06:39:14;;;;;;;12.30;5.70;;;22.10;99.90;;;;;;5071438;28;20198;-50
2023/06/17 06:41:40;;;;;;;8.55;6.13;;;22.20;99.90;;;;;;5071403;28;20162;-51
2023/06/17 06:44:05;;;;;;;7.75;5.38;;;22.10;99.90;;;;;;5085598;28;20235;-48
2023/06/17 06:46:31;;;;;;;9.52;6.53;;;22.20;99.90;;;;;;5088380;28;20209;-50
2023/06/17 06:48:58;;;;;;;7.82;6.22;;;22.10;99.90;;;;;;5090385;28;20239;-50
2023/06/17 06:51:24;;;;;;;7.55;6.40;;;22.20;99.90;;;;;;5090032;28;20168;-52
2023/06/17 06:53:49;;;;;;;10.00;6.20;;;22.20;99.90;;;;;;5094005;28;20165;-50
2023/06/17 06:56:15;;;;;;;10.90;6.72;;;22.40;99.90;;;;;;5094162;28;20192;-48
2023/06/17 06:58:40;;;;;;;9.52;6.70;;;22.50;99.90;;;;;;5093812;28;20184;-52
2023/06/17 07:01:06;;;;;;;8.02;6.45;;;22.50;99.90;;;;;;5093878;28;20653;-48
2023/06/17 07:03:32;;;;;;;10.95;6.80;;;22.60;99.90;;;;;;5093596;28;20252;-48
2023/06/17 07:05:58;;;;;;;10.43;6.38;;;22.70;99.90;;;;;;5093966;28;20220;-50
2023/06/17 07:08:24;;;;;;;8.50;6.78;;;22.80;99.90;;;;;;5093488;28;20217;-50
2023/06/17 07:10:50;;;;;;;11.32;7.38;;;22.70;99.90;;;;;;5093538;28;20277;-50
2023/06/17 07:13:17;;;;;;;13.60;8.80;;;22.90;99.90;;;;;;5093432;28;20286;-50
2023/06/17 07:15:44;;;;;;;10.45;7.63;;;22.80;99.90;;;;;;5093521;28;20259;-50
2023/06/17 07:18:10;;;;;;;14.88;7.55;;;22.90;99.90;;;;;;5075347;28;20165;-50
2023/06/17 07:20:37;;;;;;;13.98;7.43;;;23.00;99.90;;;;;;5093324;28;20173;-50
2023/06/17 07:23:03;;;;;;;8.65;7.25;;;23.20;99.90;;;;;;5093491;28;20267;-50
2023/06/17 07:25:28;;;;;;;10.38;7.53;;;23.10;99.90;;;;;;5093318;28;20295;-49
2023/06/17 07:27:59;;;;;;;11.10;7.75;;;22.90;99.90;;;;;;5093142;28;20174;-49
2023/06/17 07:30:26;;;;;;;11.85;6.72;;;23.20;99.90;;;;;;5093817;28;20598;-49
2023/06/17 07:32:52;;;;;;;18.33;7.63;;;23.30;99.90;;;;;;5093427;28;20177;-49
2023/06/17 07:35:18;;;;;;;9.00;6.53;;;23.50;99.90;;;;;;5093110;28;20508;-50
2023/06/17 07:37:44;;;;;;;8.73;6.50;;;23.70;99.90;;;;;;5092887;28;20584;-49
2023/06/17 07:40:11;;;;;;;13.65;7.07;;;23.90;99.90;;;;;;5092958;28;20249;-49
2023/06/17 07:42:41;;;;;;;12.13;6.85;;;24.00;99.90;;;;;;5093093;28;20173;-50
2023/06/17 07:45:07;;;;;;;10.68;6.78;;;24.00;99.90;;;;;;5093027;28;20572;-49
2023/06/17 07:47:33;;;;;;;11.75;6.95;;;24.00;99.90;;;;;;5092838;28;20166;-49
2023/06/17 07:49:58;;;;;;;11.13;6.57;;;23.80;99.90;;;;;;5093138;28;20257;-49
2023/06/17 07:52:24;;;;;;;17.75;7.72;;;24.00;99.90;;;;;;5092766;28;20197;-49
2023/06/17 07:54:51;;;;;;;14.88;6.55;;;23.90;99.90;;;;;;5092860;28;20161;-49
2023/06/17 07:57:17;;;;;;;13.75;8.07;;;24.20;99.90;;;;;;5092277;28;20178;-49
2023/06/17 07:59:42;;;;;;;10.20;6.88;;;24.40;99.90;;;;;;5091631;28;20204;-49
2023/06/17 08:02:08;;;;;;;17.17;7.15;;;24.60;99.90;;;;;;5092592;28;20197;-49
2023/06/17 08:04:34;;;;;;;13.55;7.65;;;24.70;99.90;;;;;;5091213;28;20158;-49
2023/06/17 08:07:00;;;;;;;16.00;7.82;;;24.90;99.90;;;;;;5092437;28;20174;-50
2023/06/17 08:09:25;;;;;;;22.13;8.43;;;24.80;99.90;;;;;;5092655;28;20177;-49
2023/06/17 08:11:51;;;;;;;13.93;7.03;;;24.70;99.90;;;;;;5092515;28;20254;-49
2023/06/17 08:14:16;;;;;;;12.95;7.18;;;24.40;99.90;;;;;;5092268;28;20547;-49
2023/06/17 08:16:43;;;;;;;11.32;6.95;;;25.00;99.20;;;;;;5092131;28;20158;-49
2023/06/17 08:19:09;;;;;;;12.38;7.40;;;24.80;99.00;;;;;;5092364;28;20177;-49
2023/06/17 08:21:36;;;;;;;13.25;7.43;;;24.90;97.70;;;;;;5092419;28;20508;-48
2023/06/17 08:24:24;;;;;;;12.80;7.43;;;25.20;99.40;;;;;;5092445;28;20165;-49
2023/06/17 08:26:51;;;;;;;16.27;8.30;;;25.20;98.10;;;;;;5092032;28;20169;-49
2023/06/17 08:29:17;;;;;;;15.90;7.97;;;25.00;98.00;;;;;;5091887;28;20219;-49
2023/06/17 08:31:44;;;;;;;10.07;7.07;;;25.40;97.80;;;;;;5091897;28;20169;-50
2023/06/17 08:34:10;;;;;;;15.20;6.93;;;25.60;96.80;;;;;;5092018;28;20179;-49
2023/06/17 08:36:38;;;;;;;9.27;6.55;;;25.50;95.50;;;;;;5092088;28;20173;-49
2023/06/17 08:39:04;;;;;;;7.90;6.13;;;25.50;94.40;;;;;;5092169;28;20193;-49
2023/06/17 08:41:36;;;;;;;7.07;5.70;;;25.60;92.00;;;;;;5090829;28;20173;-49
2023/06/17 08:44:04;;;;;;;11.77;6.32;;;25.70;91.40;;;;;;5091789;28;20188;-49
2023/06/17 08:46:30;;;;;;;9.85;5.47;;;25.60;92.00;;;;;;5091926;28;20213;-49
2023/06/17 08:48:57;;;;;;;8.20;5.20;;;25.70;90.30;;;;;;5091921;28;20174;-49
2023/06/17 08:51:22;;;;;;;8.20;4.25;;;25.70;85.20;;;;;;5091818;28;20173;-49
2023/06/17 08:53:49;;;;;;;8.60;4.63;;;25.30;80.40;;;;;;5091665;28;20524;-49
2023/06/17 08:56:14;;;;;;;7.68;4.93;;;26.10;75.80;;;;;;5090385;28;20170;-49
2023/06/17 08:58:40;;;;;;;4.45;3.70;;;25.90;77.50;;;;;;5091480;28;20180;-49
2023/06/17 09:01:06;;;;;;;7.18;4.30;;;25.80;74.60;;;;;;5091313;28;20246;-49
2023/06/17 09:03:37;;;;;;;8.77;5.38;;;26.40;76.80;;;;;;5073149;28;20552;-49
2023/06/17 09:06:14;;;;;;;6.45;4.80;;;26.30;79.20;;;;;;5091203;28;20562;-49
2023/06/17 09:08:41;;;;;;;7.35;4.93;;;26.50;82.50;;;;;;5072879;28;20217;-49
2023/06/17 09:11:07;;;;;;;10.52;5.20;;;26.10;78.60;;;;;;5091343;28;20169;-49
2023/06/17 09:13:32;;;;;;;8.20;4.90;;;26.40;80.50;;;;;;5091276;28;20173;-49
2023/06/17 09:15:59;;;;;;;8.32;4.43;;;26.80;81.40;;;;;;5091213;28;20179;-49
2023/06/17 09:18:25;;;;;;;9.13;5.72;;;26.70;81.80;;;;;;5091509;28;20214;-49
2023/06/17 09:20:52;;;;;;;6.78;5.15;;;27.00;82.00;;;;;;5090918;28;20165;-49
2023/06/17 09:23:18;;;;;;;6.55;4.82;;;26.90;83.80;;;;;;5091034;28;20176;-49
2023/06/17 09:25:43;;;;;;;8.45;4.93;;;26.70;79.50;;;;;;5090741;28;20200;-49
2023/06/17 09:28:09;;;;;;;10.57;5.50;;;26.60;78.50;;;;;;5072560;28;20655;-50
2023/06/17 09:30:43;;;;;;;6.60;4.70;;;26.70;78.40;;;;;;5091041;28;20169;-50
2023/06/17 09:33:22;;;;;;;5.78;4.22;;;26.30;78.80;;;;;;5090993;28;20689;-50
2023/06/17 09:35:47;;;;;;;8.18;5.60;;;26.90;78.70;;;;;;5091079;28;20242;-50
2023/06/17 09:38:20;;;;;;;10.88;5.20;;;27.20;78.90;;;;;;5090767;28;20613;-50
2023/06/17 09:40:48;;;;;;;12.80;5.60;;;26.70;79.10;;;;;;5090647;28;20210;-50
2023/06/17 09:43:14;;;;;;;7.88;4.70;;;26.70;79.60;;;;;;5090847;28;20260;-50
2023/06/17 09:45:40;;;;;;;5.80;4.07;;;26.80;81.50;;;;;;5089237;28;20306;-50
2023/06/17 09:48:07;;;;;;;10.02;4.57;;;27.10;78.70;;;;;;5090573;28;20246;-50
2023/06/17 09:50:36;;;;;;;9.13;4.38;;;27.10;78.80;;;;;;5090735;28;20282;-50
2023/06/17 09:53:05;;;;;;;9.57;5.18;;;26.90;78.60;;;;;;5088870;28;20204;-50
2023/06/17 09:55:31;;;;;;;7.53;4.60;;;26.90;78.00;;;;;;5090676;28;20180;-50
2023/06/17 09:57:59;;;;;;;5.93;3.70;;;27.30;77.40;;;;;;5090860;28;20193;-50
2023/06/17 10:00:27;;;;;;;6.15;4.50;;;27.30;78.80;;;;;;5091010;28;20573;-50
2023/06/17 10:02:53;;;;;;;9.50;5.15;;;27.40;78.00;;;;;;5090312;28;20161;-50
2023/06/17 10:05:23;;;;;;;12.10;4.43;;;27.40;76.00;;;;;;5090358;28;20257;-50
2023/06/17 10:07:51;;;;;;;7.68;4.85;;;27.70;75.60;;;;;;5090117;28;20247;-50
2023/06/17 10:10:18;;;;;;;7.15;4.80;;;27.60;76.30;;;;;;5090382;28;20194;-50
2023/06/17 10:12:45;;;;;;;10.57;4.93;;;27.80;77.30;;;;;;5090049;28;20161;-50
2023/06/17 10:15:12;;;;;;;7.93;4.85;;;27.90;76.90;;;;;;5090044;28;20248;-50
2023/06/17 10:17:40;;;;;;;9.90;4.82;;;27.80;74.80;;;;;;5090066;28;20172;-50
2023/06/17 10:20:08;;;;;;;8.20;5.22;;;28.00;73.90;;;;;;5089902;28;20632;-50
2023/06/17 10:22:37;;;;;;;7.93;4.55;;;27.80;75.00;;;;;;5071976;28;20168;-50
2023/06/17 10:25:04;;;;;;;7.85;5.15;;;28.10;76.30;;;;;;5089891;28;20254;-49
2023/06/17 10:27:31;;;;;;;9.07;5.03;;;28.10;75.40;;;;;;5089320;28;20210;-50
2023/06/17 10:30:01;;;;;;;8.15;5.25;;;28.10;73.80;;;;;;5090740;28;20305;-50
2023/06/17 10:32:26;;;;;;;9.98;4.72;;;28.20;72.60;;;;;;5090490;28;20165;-50
2023/06/17 10:35:35;;;;;;;6.57;5.10;;;28.00;74.10;;;;;;5090084;28;20628;-50
2023/06/17 10:38:01;;;;;;;10.38;4.93;;;28.00;73.20;;;;;;5042472;28;20302;-50
2023/06/17 10:40:29;;;;;;;10.80;5.55;;;27.80;72.60;;;;;;5090259;28;20684;-50
2023/06/17 10:43:01;;;;;;;9.10;4.60;;;28.10;73.60;;;;;;5090017;28;20171;-50
2023/06/17 10:45:31;;;;;;;12.32;5.18;;;28.30;74.80;;;;;;5089976;28;20201;-50
2023/06/17 10:48:22;;;;;;;8.27;4.90;;;28.30;73.40;;;;;;5090176;28;20251;-50
2023/06/17 10:50:56;;;;;;;8.63;5.00;;;28.10;72.90;;;;;;5089379;28;20157;-50
2023/06/17 10:53:30;;;;;;;6.28;4.93;;;28.20;73.50;;;;;;5071549;28;20179;-50
2023/06/17 10:55:57;;;;;;;7.22;4.45;;;28.50;73.40;;;;;;5090403;28;20250;-50
2023/06/17 10:58:29;;;;;;;5.10;4.55;;;28.90;73.10;;;;;;5089797;28;20157;-50
2023/06/17 11:01:08;;;;;;;6.75;4.03;;;28.60;71.60;;;;;;5090145;28;20161;-50
2023/06/17 11:03:34;;;;;;;4.65;4.25;;;28.80;70.70;;;;;;5090064;28;20644;-50
2023/06/17 11:06:01;;;;;;;6.22;4.22;;;28.90;71.90;;;;;;5090019;28;20235;-51
2023/06/17 11:08:29;;;;;;;5.32;4.25;;;28.90;71.00;;;;;;5090028;28;20238;-50
2023/06/17 11:11:12;;;;;;;4.93;4.40;;;29.00;69.90;;;;;;5089958;28;20671;-50
2023/06/17 11:13:50;;;;;;;6.60;4.03;;;28.80;69.70;;;;;;5089668;28;20217;-50
2023/06/17 11:16:16;;;;;;;6.68;4.18;;;28.70;69.40;;;;;;5089609;28;20225;-50
2023/06/17 11:18:44;;;;;;;9.88;4.20;;;28.70;71.00;;;;;;5089690;28;20172;-50
2023/06/17 11:21:10;;;;;;;12.25;4.30;;;28.80;68.50;;;;;;5089529;28;20279;-50
2023/06/17 11:23:38;;;;;;;9.65;4.60;;;28.80;68.90;;;;;;5089886;28;20628;-50
2023/06/17 11:26:05;;;;;;;5.78;3.97;;;28.60;66.30;;;;;;5089332;28;20270;-50
2023/06/17 11:28:31;;;;;;;7.57;3.70;;;29.00;67.60;;;;;;5089312;28;20172;-50
2023/06/17 11:30:57;;;;;;;5.63;4.20;;;29.10;66.10;;;;;;5071886;28;20265;-50
2023/06/17 11:33:23;;;;;;;4.53;4.10;;;29.00;64.40;;;;;;5089758;28;20176;-50
2023/06/17 11:35:53;;;;;;;6.70;3.95;;;29.30;67.10;;;;;;5089414;28;20299;-50
2023/06/17 11:38:20;;;;;;;12.10;4.65;;;29.40;64.80;;;;;;5091029;28;20267;-50
2023/06/17 11:40:45;;;;;;;8.35;4.03;;;29.10;65.50;;;;;;5092827;28;20176;-50
2023/06/17 11:43:11;;;;;;;6.65;4.15;;;29.10;60.60;;;;;;5093012;28;20565;-50
2023/06/17 11:45:37;;;;;;;5.43;4.10;;;29.40;62.10;;;;;;5092943;28;20202;-50
2023/06/17 11:48:07;;;;;;;10.80;3.83;;;29.50;60.70;;;;;;5092905;28;20175;-50
2023/06/17 11:50:36;;;;;;;7.13;3.88;;;29.60;60.60;;;;;;5092594;28;20169;-50
2023/06/17 11:53:02;;;;;;;7.65;3.63;;;29.50;61.70;;;;;;5092732;28;20180;-50
2023/06/17 11:55:35;;;;;;;8.23;4.30;;;29.30;59.60;;;;;;5093486;28;20169;-50
2023/06/17 11:58:02;;;;;;;4.43;3.90;;;29.20;59.30;;;;;;5092813;28;20165;-50
2023/06/17 12:00:29;;;;;;;4.03;3.63;;;29.40;62.70;;;;;;5093156;28;20191;-50
2023/06/17 12:02:57;;;;;;;5.03;3.75;;;30.10;64.40;;;;;;5092888;28;20161;-51
2023/06/17 12:05:29;;;;;;;4.78;4.18;;;29.90;63.60;;;;;;5092922;28;20603;-51
2023/06/17 12:08:00;;;;;;;6.93;4.20;;;29.80;62.20;;;;;;5092947;28;20258;-51
2023/06/17 12:10:26;;;;;;;6.60;4.50;;;29.80;61.80;;;;;;5093001;28;20165;-50
2023/06/17 12:12:57;;;;;;;7.57;3.63;;;29.90;62.20;;;;;;5092830;28;20180;-50
2023/06/17 12:15:29;;;;;;;5.70;3.83;;;30.00;62.50;;;;;;5092479;28;20632;-51
2023/06/17 12:17:56;;;;;;;6.97;4.10;;;30.20;62.00;;;;;;5092895;28;20188;-51
2023/06/17 12:20:22;;;;;;;6.95;4.18;;;30.40;61.70;;;;;;5074670;28;20177;-51
2023/06/17 12:22:50;;;;;;;7.30;4.72;;;30.20;60.70;;;;;;5092383;28;20627;-51
2023/06/17 12:25:16;;;;;;;7.22;4.18;;;29.80;60.50;;;;;;5092327;28;20568;-51
2023/06/17 12:27:42;;;;;;;6.75;4.05;;;29.90;60.80;;;;;;5092186;28;20214;-51
2023/06/17 12:30:09;;;;;;;5.65;4.20;;;30.00;62.60;;;;;;5092190;28;20167;-50
2023/06/17 12:32:37;;;;;;;6.05;3.90;;;29.90;61.50;;;;;;5074119;28;20532;-51
2023/06/17 12:35:04;;;;;;;6.18;4.13;;;29.90;62.00;;;;;;5092380;28;20179;-51
2023/06/17 12:37:32;;;;;;;6.28;4.10;;;30.10;60.80;;;;;;5091939;28;20525;-50
2023/06/17 12:39:59;;;;;;;14.05;4.40;;;30.30;60.90;;;;;;5092717;28;20510;-51
2023/06/17 12:42:26;;;;;;;7.32;4.03;;;30.30;60.40;;;;;;5092620;28;20175;-50
2023/06/17 12:44:51;;;;;;;5.97;4.05;;;30.10;58.50;;;;;;5091841;28;20191;-51